NEW HOGAN LAKE (NHG)

Elevation: 554' · CALAVERAS R basin · Operator: US Army Corps of Engineers

Provisional data, subject to change.
Query executed Wednesday at 17:54:38   clock

Select a sensor type for a plot of data.
Note: Reservoir Flows are daily averages.

Earlier

Date RES ELE    STORAGE    RES CHG    TOC STO    OUTFLOW    INFLOW    FNF    PPT INC    TEMP MN    TEMP MX   
 FEET   AF   AF   AF   CFS   CFS   CFS   INCHES   DEG F   DEG F  
03/17/2014 645.48 99936 -45 213000 23 11 11 0.00 47 65
03/18/2014 645.48 99936 0 215100 23 33 33 0.00 42 68
03/19/2014 645.47 99914 -22 216300 23 23 23 0.00 48 75
03/20/2014 645.46 99892 -22 217100 24 25 25 0.00 50 74
03/21/2014 645.44 99847 -45 219100 26 13 13 0.00 49 71
03/22/2014 645.44 99847 0 221200 26 37 37 0.00 46 71
03/23/2014 645.42 99802 -45 223200 26 14 14 0.00 46 72
03/24/2014 645.40 99758 -44 225300 26 16 16 0.00 48 76
03/25/2014 645.39 99736 -22 227300 26 23 23 0.03 49 68
03/26/2014 645.42 99802 66 226100 25 61 61 0.69 50 54
03/27/2014 645.45 99869 67 228200 23 62 62 0.05 46 61
03/28/2014 645.46 99892 23 231100 22 44 44 0.02 47 69
03/29/2014 645.56 100114 222 226100 20 135 135 0.91 49 64
03/30/2014 645.64 100293 179 229000 20 118 118 0.02 46 61
03/31/2014 645.74 100517 224 228200 20 138 138 0.32 43 58
04/01/2014 645.87 100808 291 227500 21 175 175 0.65 41 55
04/02/2014 646.04 101189 381 230000 22 222 222 0.02 43 58
04/03/2014 646.17 101481 292 233400 21 177 177 0.01 42 66
04/04/2014 646.25 101661 180 237300 19 120 120 0.00 46 61
04/05/2014 646.32 101818 157 240600 16 106 106 0.00 43 65
04/06/2014 646.36 101908 90 243800 17 74 74 0.01 47 73
04/07/2014 646.39 101976 68 246900 22 70 70 0.02 54 79
04/08/2014 646.39 101976 0 250300 38 52 52 0.01 53 84
04/09/2014 646.36 101908 -68 253900 73 53 53 0.00 55 80
04/10/2014 646.28 101728 -180 257200 107 31 31 0.00 54 82
04/11/2014 646.16 101458 -270 260700 149 23 23 0.00 54 75
04/12/2014 646.04 101189 -269 264000 158 34 34 0.00 49 71
04/13/2014 645.94 100964 -225 266100 136 34 34 0.00 50 74
04/14/2014 645.86 100785 -179 268100 104 28 28 0.01 51 80
04/15/2014 645.78 100606 -179 270200 103 28 28 0.00 52 78
04/16/2014 -- -- -- -- -- -- -- -- -- --

Later | Latest

Warning! This data is preliminary and subject to revision.

Download Data Now Download Data Now | Show NHG Map | Plot NHG Data | 1 Month NHG Data | Real-Time NHG Data | NHG Info